Volcan De Teneguia — ECLA — position and weather

sailwx.info

Track history (hours):
 
Tides and Currents Weather Stations Pressure Air Temp Water Temp Dewpoint Dewpoint Depression Visibility Wind Speed Wind Dir Waves Ship Positions

Volcan De Teneguia

Last reported at 2014-Oct-22 09:31 UTC. Time now 2014-Oct-23 13:53 UTC.
Position N 34°53' W 008°32'.

Length 145 m; draft 5.9 m.

Type: Cargo ship. MMSI: 225317000.

Date/timePositionNaut miles runAvg speedWind from/ knotsBaromVisibWave heightAir tempDewpointWater temp
2014-Oct-22 09:31N 34°53' W 008°32'4214.1
2014-Oct-22 06:34N 35°26' W 007°59'1914.2
2014-Oct-22 05:13N 35°40' W 007°44'914.1
2014-Oct-22 04:33N 35°47' W 007°36'1413.8
2014-Oct-22 03:33N 35°58' W 007°25'  
2014-Oct-19 12:18N 34°59' W 008°38'1114.4
2014-Oct-19 11:34N 34°52' W 008°47'1514.5
2014-Oct-19 10:33N 34°41' W 008°59'1514.6
2014-Oct-19 09:33N 34°31' W 009°12'1714.2
2014-Oct-19 08:19N 34°18' W 009°27'2614.4
2014-Oct-19 06:32N 34°00' W 009°49'1414.3
2014-Oct-19 05:33N 33°50' W 010°00'1414.5
2014-Oct-19 04:33N 33°40' W 010°13'1414.4
2014-Oct-19 03:33N 33°30' W 010°25'1914.1
2014-Oct-19 02:11N 33°16' W 010°41'  
Track history (hours):
 
Tides and Currents Weather Stations Pressure Air Temp Water Temp Dewpoint Dewpoint Depression Visibility Wind Speed Wind Dir Waves Ship Positions

Volcan De Teneguia

Last reported at 2014-Oct-22 09:31 UTC. Time now 2014-Oct-23 13:53 UTC.
Position N 34°53' W 008°32'.

Length 145 m; draft 5.9 m.

Type: Cargo ship. MMSI: 225317000.

Date/timePositionNaut miles runAvg speedWind from/ knotsBaromVisibWave heightAir tempDewpointWater temp
2014-Oct-22 09:31N 34°53' W 008°32'4214.1
2014-Oct-22 06:34N 35°26' W 007°59'1914.2
2014-Oct-22 05:13N 35°40' W 007°44'914.1
2014-Oct-22 04:33N 35°47' W 007°36'1413.8
2014-Oct-22 03:33N 35°58' W 007°25'  
2014-Oct-19 12:18N 34°59' W 008°38'1114.4
2014-Oct-19 11:34N 34°52' W 008°47'1514.5
2014-Oct-19 10:33N 34°41' W 008°59'1514.6
2014-Oct-19 09:33N 34°31' W 009°12'1714.2
2014-Oct-19 08:19N 34°18' W 009°27'2614.4
2014-Oct-19 06:32N 34°00' W 009°49'1414.3
2014-Oct-19 05:33N 33°50' W 010°00'1414.5
2014-Oct-19 04:33N 33°40' W 010°13'1414.4
2014-Oct-19 03:33N 33°30' W 010°25'1914.1
2014-Oct-19 02:11N 33°16' W 010°41'  

Dump ship's entire track history